Time;durP1;ratioP1;P1;durP2;ratioP2;P2;SDS_P1;SDS_P2;PMS_P1;PMS_P2;Temp;Humidity;BMP_temperature;BMP_pressure;BME280_temperature;BME280_humidity;BME280_pressure;Samples;Min_cycle;Max_cycle;Signal;HPM_P1;HPM_P2
2022/08/29 00:01:08;;;;;;;3.42;1.60;;;;;;;22.65;44.83;102345.47;4912787;29;20135;-81
2022/08/29 00:03:37;;;;;;;3.88;1.73;;;;;;;22.65;44.69;102341.97;4894634;29;20057;-80
2022/08/29 00:06:05;;;;;;;3.55;1.90;;;;;;;22.65;44.63;102345.47;4885719;29;20053;-80
2022/08/29 00:08:31;;;;;;;2.63;1.58;;;;;;;22.65;44.56;102334.13;4897054;29;20509;-80
2022/08/29 00:10:57;;;;;;;4.80;1.77;;;;;;;22.65;44.89;102329.72;4879582;29;20088;-80
2022/08/29 00:13:22;;;;;;;3.63;1.55;;;;;;;22.64;44.51;102322.72;4900116;29;20052;-81
2022/08/29 00:15:51;;;;;;;3.45;1.85;;;;;;;22.64;45.03;102321.84;4913321;29;20056;-79
2022/08/29 00:18:18;;;;;;;2.65;1.77;;;;;;;22.64;44.82;102317.47;4917729;29;20055;-80
2022/08/29 00:20:48;;;;;;;4.63;1.42;;;;;;;22.65;44.68;102323.63;4908744;29;20051;-84
2022/08/29 00:23:14;;;;;;;3.08;1.40;;;;;;;22.65;44.61;102329.72;4912429;29;20447;-84
2022/08/29 00:25:39;;;;;;;4.13;1.50;;;;;;;22.62;44.72;102324.47;4912979;29;20076;-85
2022/08/29 00:28:05;;;;;;;4.65;1.58;;;;;;;22.62;45.00;102321.84;4911003;29;20060;-84
2022/08/29 00:33:05;;;;;;;3.10;1.58;;;;;;;22.65;44.98;102327.09;4933790;29;20048;-85
2022/08/29 00:35:38;;;;;;;4.45;1.80;;;;;;;22.60;44.75;102326.25;4917941;29;20059;-85
2022/08/29 00:38:11;;;;;;;3.72;1.60;;;;;;;22.61;44.92;102328.00;4912766;29;20056;-85
2022/08/29 00:43:21;;;;;;;3.30;1.50;;;;;;;22.59;44.88;102335.88;4923390;29;20051;-79
2022/08/29 00:46:13;;;;;;;3.60;1.75;;;;;;;22.60;44.81;102342.00;4918563;29;20052;-80
2022/08/29 00:51:07;;;;;;;2.45;1.30;;;;;;;22.59;44.78;102346.38;4914887;29;20130;-80
2022/08/29 00:53:37;;;;;;;3.35;1.80;;;;;;;22.61;44.94;102349.00;4915935;29;20075;-79
2022/08/29 00:56:05;;;;;;;4.07;1.80;;;;;;;22.61;45.03;102343.75;4897887;29;20059;-79
2022/08/29 00:58:36;;;;;;;3.20;1.58;;;;;;;22.59;44.72;102337.63;4906143;29;20052;-78
2022/08/29 01:01:01;;;;;;;4.20;1.70;;;;;;;22.60;44.99;102339.38;4914051;29;20150;-79
2022/08/29 01:03:34;;;;;;;3.13;1.58;;;;;;;22.60;45.06;102342.00;4901667;29;20487;-80
2022/08/29 01:06:00;;;;;;;4.32;1.63;;;;;;;22.58;45.02;102338.50;4897048;29;20143;-79
2022/08/29 01:08:26;;;;;;;3.15;1.67;;;;;;;22.57;44.78;102329.78;4847381;29;1516720;-79
2022/08/29 01:16:05;;;;;;;5.95;1.90;;;;;;;22.57;45.03;102335.00;4922717;29;20056;-79
2022/08/29 01:18:34;;;;;;;2.95;1.52;;;;;;;22.59;44.79;102338.50;4916101;29;20048;-80
2022/08/29 01:21:07;;;;;;;3.30;1.60;;;;;;;22.57;44.94;102331.53;4917321;29;20048;-79
2022/08/29 01:26:04;;;;;;;3.85;1.80;;;;;;;22.56;44.69;102330.66;4914126;29;20044;-80
2022/08/29 01:28:36;;;;;;;5.63;1.63;;;;;;;22.56;44.60;102335.06;4907755;29;20051;-78
2022/08/29 01:31:28;;;;;;;3.00;1.60;;;;;;;22.57;44.46;102337.63;4912549;29;20068;-79
2022/08/29 01:34:01;;;;;;;2.85;1.77;;;;;;;22.57;44.51;102342.88;4892355;29;20488;-80
2022/08/29 01:39:29;;;;;;;3.80;1.83;;;;;;;22.59;44.59;102348.13;4921614;29;21136;-83
2022/08/29 01:41:57;;;;;;;3.33;1.50;;;;;;;22.59;44.50;102353.38;4922351;29;20051;-80
2022/08/29 01:44:25;;;;;;;2.97;1.65;;;;;;;22.55;44.55;102343.78;4905874;29;20048;-80
2022/08/29 01:47:10;;;;;;;2.55;1.70;;;;;;;22.54;44.52;102342.91;4881951;29;20052;-84
2022/08/29 01:49:36;;;;;;;4.35;1.80;;;;;;;22.54;44.48;102342.91;4922594;29;20052;-84
2022/08/29 01:52:02;;;;;;;3.78;1.67;;;;;;;22.57;44.81;102344.66;4924681;29;20138;-85
2022/08/29 02:12:37;;;;;;;3.05;1.70;;;;;;;22.50;44.30;102325.44;4997946;23;20052;-84
2022/08/29 02:18:04;;;;;;;7.55;2.40;;;;;;;22.51;44.66;102324.56;4930354;29;21264;-84
2022/08/29 02:20:31;;;;;;;3.50;1.67;;;;;;;22.54;44.41;102331.56;4913692;29;20056;-83
2022/08/29 02:22:56;;;;;;;4.13;1.60;;;;;;;22.55;44.56;102328.03;4887687;29;20056;-83
2022/08/29 02:31:06;;;;;;;4.03;1.90;;;;;;;22.53;44.40;102335.06;4923688;29;20127;-83
2022/08/29 02:33:32;;;;;;;3.35;1.80;;;;;;;22.53;44.35;102333.28;4913321;29;20052;-83
2022/08/29 02:41:15;;;;;;;3.20;1.88;;;;;;;22.53;44.64;102324.56;4931340;29;20154;-85
2022/08/29 02:46:06;;;;;;;3.78;2.22;;;;;;;22.55;44.31;102330.66;4930067;29;20087;-84
2022/08/29 03:01:04;;;;;;;3.00;1.90;;;;;;;22.49;44.44;102335.94;5169015;23;20082;-84
2022/08/29 03:08:58;;;;;;;3.40;1.98;;;;;;;22.51;44.33;102335.06;5097279;23;20051;-85
2022/08/29 03:11:23;;;;;;;4.57;1.80;;;;;;;22.50;44.32;102330.69;4908519;29;20062;-84
2022/08/29 03:13:49;;;;;;;2.65;1.80;;;;;;;22.50;44.29;102327.22;4904311;29;20062;-84
2022/08/29 03:19:06;;;;;;;3.53;1.80;;;;;;;22.49;44.44;102323.69;5022643;23;20067;-85
2022/08/29 03:27:04;;;;;;;3.60;1.77;;;;;;;22.49;44.43;102326.31;5175732;23;20415;-84
2022/08/29 03:29:30;;;;;;;3.72;2.17;;;;;;;22.50;44.36;102320.22;4906589;29;20052;-85
2022/08/29 03:31:57;;;;;;;5.85;2.00;;;;;;;22.51;44.34;102314.06;4909207;29;20052;-85
2022/08/29 03:51:48;;;;;;;3.80;2.20;;;;;;;22.52;44.18;102314.97;5659821;23;20041;-84
2022/08/29 03:59:31;;;;;;;4.20;2.25;;;;;;;22.52;44.46;102317.59;3179536;29;20127;-82
2022/08/29 04:01:57;;;;;;;3.63;2.30;;;;;;;22.53;44.25;102317.53;4940313;23;20041;-83
2022/08/29 04:07:07;;;;;;;5.35;2.33;;;;;;;22.50;44.33;102307.09;5171345;23;20075;-83
2022/08/29 04:09:33;;;;;;;4.80;2.10;;;;;;;22.50;44.66;102303.59;4905118;29;20048;-84
2022/08/29 04:11:58;;;;;;;3.60;2.20;;;;;;;22.50;44.43;102300.97;4910776;29;20052;-85
2022/08/29 04:17:16;;;;;;;3.47;2.03;;;;;;;22.49;44.48;102305.31;4931778;29;20056;-83
2022/08/29 04:24:59;;;;;;;3.45;2.17;;;;;;;22.51;44.69;102307.94;5085931;23;20075;-83
2022/08/29 04:27:24;;;;;;;5.35;2.40;;;;;;;22.52;44.49;102307.09;4919677;29;20123;-84
2022/08/29 04:36:04;;;;;;;5.00;2.63;;;;;;;22.49;44.71;102313.19;5063619;23;20060;-84
2022/08/29 04:38:31;;;;;;;4.07;2.42;;;;;;;22.50;44.43;102308.84;4910689;29;20084;-82
2022/08/29 04:40:56;;;;;;;3.42;2.30;;;;;;;22.50;44.59;102317.59;4911040;29;20052;-83
2022/08/29 04:46:04;;;;;;;4.18;2.10;;;;;;;22.47;44.49;102312.38;4924193;29;20119;-84
2022/08/29 04:51:04;;;;;;;6.85;2.30;;;;;;;22.51;44.37;102318.44;4934088;29;20056;-83
2022/08/29 04:53:30;;;;;;;4.80;2.35;;;;;;;22.52;44.48;102322.81;4907737;29;20059;-83
2022/08/29 04:56:37;;;;;;;4.07;2.20;;;;;;;22.52;44.63;102328.94;4886930;29;20045;-83
2022/08/29 05:05:03;;;;;;;4.07;2.27;;;;;;;22.51;44.65;102327.19;2551684;23;20240;-84
2022/08/29 05:10:17;;;;;;;4.57;2.47;;;;;;;22.50;44.50;102328.06;4926643;29;21131;-84
2022/08/29 05:12:43;;;;;;;3.40;2.28;;;;;;;22.51;44.73;102340.28;4925353;29;20052;-85
2022/08/29 05:15:09;;;;;;;3.70;2.33;;;;;;;22.52;44.69;102341.19;4906157;29;20056;-82
2022/08/29 05:17:35;;;;;;;3.88;2.50;;;;;;;22.51;44.85;102336.81;4901977;29;20056;-82
2022/08/29 05:20:03;;;;;;;6.22;2.58;;;;;;;22.50;44.71;102342.94;4903414;29;20075;-83
2022/08/29 05:22:29;;;;;;;4.20;2.38;;;;;;;22.51;44.80;102344.69;4917511;29;20044;-81
2022/08/29 05:24:55;;;;;;;6.05;2.45;;;;;;;22.50;44.62;102350.81;4901456;29;20052;-82
2022/08/29 05:27:22;;;;;;;6.53;2.78;;;;;;;22.52;44.85;102349.06;4902797;29;20404;-82
2022/08/29 05:29:50;;;;;;;21.65;8.05;;;;;;;22.53;44.86;102346.41;4917334;29;20048;-85
2022/08/29 05:32:18;;;;;;;23.75;9.82;;;;;;;22.51;45.49;102353.41;4913721;29;20550;-83
2022/08/29 05:34:45;;;;;;;20.83;8.93;;;;;;;22.55;45.01;102349.91;4926476;29;20072;-82
2022/08/29 05:37:14;;;;;;;23.63;8.23;;;;;;;22.57;45.31;102349.91;4905784;29;20032;-86
2022/08/29 05:39:41;;;;;;;19.67;8.05;;;;;;;22.56;45.41;102350.78;4916180;29;20076;-86
2022/08/29 05:42:09;;;;;;;16.58;6.25;;;;;;;22.56;45.24;102358.66;4865469;29;1218504;-84
2022/08/29 05:57:54;;;;;;;13.70;5.65;;;;;;;22.49;45.31;102354.31;4932899;29;20092;-90
2022/08/29 06:19:30;;;;;;;7.57;4.13;;;;;;;22.63;44.58;102369.97;4993053;23;20590;-92
2022/08/29 06:22:06;;;;;;;6.88;4.25;;;;;;;22.63;44.40;102367.38;4896557;29;20045;-90
2022/08/29 06:27:04;;;;;;;8.13;3.78;;;;;;;22.64;44.49;102371.72;4901136;29;20067;-90
2022/08/29 06:29:30;;;;;;;7.50;4.40;;;;;;;22.63;44.26;102370.84;4896258;29;20045;-90
2022/08/29 06:34:21;;;;;;;7.22;4.03;;;;;;;22.62;44.29;102370.84;4909024;29;20076;-87
2022/08/29 06:36:50;;;;;;;10.55;4.30;;;;;;;22.57;44.65;102363.88;4904990;29;20407;-89
2022/08/29 06:42:04;;;;;;;6.07;4.00;;;;;;;22.57;44.46;102369.13;4926469;29;20175;-90
2022/08/29 06:44:33;;;;;;;6.60;3.60;;;;;;;22.58;44.38;102365.63;4908991;29;20075;-85
2022/08/29 06:46:58;;;;;;;7.43;4.07;;;;;;;22.58;44.49;102372.59;4901935;29;20056;-82
2022/08/29 06:49:25;;;;;;;10.55;4.05;;;;;;;22.50;43.41;102377.91;4880630;29;20052;-84
2022/08/29 06:52:08;;;;;;;14.98;4.72;;;;;;;22.34;43.50;102377.13;4924468;29;20043;-85
2022/08/29 06:54:34;;;;;;;14.18;4.68;;;;;;;22.18;42.66;102373.66;4928067;29;20059;-84
2022/08/29 07:02:06;;;;;;;12.00;4.10;;;;;;;22.03;41.79;102385.97;4932826;29;20052;-82
2022/08/29 07:10:37;;;;;;;10.15;3.75;;;;;;;22.03;41.21;102388.59;4916928;29;20052;-87
2022/08/29 07:13:03;;;;;;;8.40;4.25;;;;;;;21.94;41.25;102385.13;4896916;29;20116;-84
2022/08/29 07:23:38;;;;;;;9.68;3.20;;;;;;;21.84;40.91;102386.06;4917116;29;20060;-88
2022/08/29 07:26:08;;;;;;;11.07;4.10;;;;;;;21.90;40.66;102387.75;4900512;29;20091;-86
2022/08/29 07:31:06;;;;;;;10.60;3.83;;;;;;;21.87;40.65;102382.53;4915192;29;20040;-88
2022/08/29 07:41:13;;;;;;;7.32;3.17;;;;;;;21.72;40.79;102375.59;4914919;29;20499;-86
2022/08/29 07:46:36;;;;;;;9.32;3.13;;;;;;;21.76;40.64;102379.94;4905222;29;20063;-85
2022/08/29 07:51:30;;;;;;;8.55;3.50;;;;;;;21.81;40.80;102387.78;4917163;29;20068;-85
2022/08/29 07:53:56;;;;;;;7.53;3.20;;;;;;;21.87;40.76;102391.28;4893770;29;20041;-85
2022/08/29 07:59:15;;;;;;;6.03;3.00;;;;;;;21.88;41.12;102392.13;4931701;29;20068;-85
2022/08/29 08:01:40;;;;;;;6.63;3.20;;;;;;;21.86;41.14;102394.78;4878163;29;20297;-86
2022/08/29 08:04:24;;;;;;;8.25;2.97;;;;;;;21.83;41.64;102388.66;4910914;29;20067;-82
2022/08/29 08:09:44;;;;;;;13.27;3.30;;;;;;;21.92;41.63;102392.13;4914967;29;20075;-84
2022/08/29 08:12:10;;;;;;;8.48;3.38;;;;;;;21.92;42.09;102383.38;4893903;29;20591;-85
2022/08/29 08:14:35;;;;;;;8.38;2.97;;;;;;;22.01;41.57;102382.50;4908682;29;20052;-83
2022/08/29 08:17:02;;;;;;;7.18;2.60;;;;;;;22.08;41.65;102377.22;4891219;29;20052;-84
2022/08/29 08:22:04;;;;;;;7.85;2.92;;;;;;;22.01;41.70;102374.63;4926652;29;20068;-84
2022/08/29 08:27:23;;;;;;;7.60;3.05;;;;;;;22.03;42.04;102370.25;4913914;29;20056;-83
2022/08/29 08:29:49;;;;;;;6.82;3.10;;;;;;;22.08;41.79;102366.75;4908489;29;20072;-85
2022/08/29 08:32:15;;;;;;;5.97;2.80;;;;;;;22.07;41.88;102367.59;4907027;29;20144;-85
2022/08/29 09:02:37;;;;;;;7.30;2.80;;;;;;;22.22;42.83;102392.94;4121175;23;20052;-80
2022/08/29 09:18:37;;;;;;;9.98;3.15;;;;;;;22.30;43.19;102399.00;4934767;29;20036;-90
2022/08/29 09:21:13;;;;;;;6.65;2.88;;;;;;;22.31;43.22;102399.88;4919167;29;20062;-89
2022/08/29 09:26:39;;;;;;;6.47;2.70;;;;;;;22.29;43.28;102399.88;4919878;29;20056;-89
2022/08/29 09:29:12;;;;;;;9.50;2.95;;;;;;;22.34;42.79;102399.84;4915513;29;20158;-88
2022/08/29 09:31:39;;;;;;;6.90;2.80;;;;;;;22.37;42.85;102399.84;4914091;29;20052;-89
2022/08/29 09:34:31;;;;;;;6.22;2.47;;;;;;;22.37;42.68;102399.84;4912432;29;20097;-90
2022/08/29 09:46:24;;;;;;;6.07;2.70;;;;;;;22.47;42.59;102403.28;4935694;28;20135;-90
2022/08/29 09:49:14;;;;;;;6.40;3.28;;;;;;;22.52;42.54;102397.16;4931945;29;20096;-85
2022/08/29 09:54:27;;;;;;;8.02;2.30;;;;;;;22.51;42.35;102387.53;4940201;29;20138;-84
2022/08/29 09:57:19;;;;;;;7.07;2.70;;;;;;;22.50;42.44;102391.03;4908380;29;20082;-83
2022/08/29 09:59:48;;;;;;;5.53;2.53;;;;;;;22.49;42.46;102391.03;4920204;29;20406;-85
2022/08/29 10:02:32;;;;;;;5.28;2.60;;;;;;;22.49;42.55;102391.91;4925531;29;20058;-84
2022/08/29 10:08:06;;;;;;;6.38;2.72;;;;;;;22.50;42.50;102400.66;4933751;29;20631;-85
2022/08/29 10:10:35;;;;;;;6.30;2.58;;;;;;;22.52;42.20;102405.03;4945296;29;20063;-84
2022/08/29 10:13:19;;;;;;;5.20;2.60;;;;;;;22.56;42.29;102396.25;4924704;29;20056;-83
2022/08/29 10:16:32;;;;;;;6.20;2.40;;;;;;;22.57;42.08;102394.50;4943285;29;20044;-84
2022/08/29 10:19:28;;;;;;;5.32;2.33;;;;;;;22.53;42.15;102398.88;4925885;29;20080;-86
2022/08/29 10:22:39;;;;;;;6.55;2.55;;;;;;;22.53;42.26;102396.25;4921044;29;20056;-83
2022/08/29 10:25:34;;;;;;;8.30;2.80;;;;;;;22.53;42.56;102387.53;4914659;29;20063;-85
2022/08/29 10:28:08;;;;;;;6.35;2.60;;;;;;;22.50;42.47;102391.03;4921141;29;20262;-84
2022/08/29 10:33:13;;;;;;;7.60;3.95;;;;;;;22.52;42.77;102404.16;4935658;29;20770;-86
2022/08/29 10:50:26;;;;;;;5.30;2.75;;;;;;;22.33;42.31;102409.47;4939058;29;20079;-88
2022/08/29 10:56:36;;;;;;;6.15;3.47;;;;;;;22.36;42.28;102404.25;4977006;23;20412;-83
2022/08/29 11:25:26;;;;;;;8.63;2.90;;;;;;;22.00;42.29;102404.34;4914452;24;20068;-85
2022/08/29 11:28:07;;;;;;;9.65;2.95;;;;;;;21.97;42.43;102399.97;4895181;29;20048;-86
2022/08/29 11:34:14;;;;;;;5.28;2.60;;;;;;;22.01;42.36;102403.47;5126067;23;20045;-85
2022/08/29 11:52:28;;;;;;;6.03;3.25;;;;;;;22.34;41.99;102385.00;4925708;28;20765;-85
2022/08/29 11:55:46;;;;;;;5.50;2.80;;;;;;;22.46;41.42;102373.56;4928522;29;20467;-85
2022/08/29 12:01:08;;;;;;;7.63;2.73;;;;;;;22.58;41.63;102373.50;4920626;29;20063;-84
2022/08/29 12:03:33;;;;;;;7.78;2.70;;;;;;;22.62;41.85;102378.72;4919927;29;20048;-83
2022/08/29 12:06:22;;;;;;;6.60;2.97;;;;;;;22.64;41.63;102376.97;4918108;29;20937;-84
2022/08/29 12:09:07;;;;;;;5.95;2.60;;;;;;;22.67;42.03;102367.31;4920975;29;20103;-84
2022/08/29 12:14:05;;;;;;;6.88;2.85;;;;;;;22.66;41.83;102362.94;4921086;29;20324;-85
2022/08/29 12:19:06;;;;;;;5.90;2.60;;;;;;;22.69;41.97;102367.28;4919206;29;20065;-85
2022/08/29 12:21:35;;;;;;;8.40;2.58;;;;;;;22.70;41.95;102364.66;4904678;29;20156;-86
2022/08/29 12:24:02;;;;;;;5.40;2.67;;;;;;;22.71;42.13;102368.16;4918902;29;20083;-84
2022/08/29 12:26:40;;;;;;;5.63;2.38;;;;;;;22.71;41.99;102370.78;4918292;29;20052;-86
2022/08/29 12:29:06;;;;;;;7.15;2.40;;;;;;;22.70;42.29;102364.66;4922574;29;20106;-84
2022/08/29 12:34:14;;;;;;;8.30;2.70;;;;;;;22.67;42.24;102361.19;4946320;29;20039;-85
2022/08/29 12:37:12;;;;;;;5.78;2.22;;;;;;;22.70;42.18;102358.56;4930521;29;20056;-85
2022/08/29 12:42:36;;;;;;;4.38;2.50;;;;;;;22.73;42.41;102354.16;4927920;29;20096;-85
2022/08/29 12:48:14;;;;;;;5.45;2.50;;;;;;;22.78;42.26;102351.50;4920021;29;20111;-85
2022/08/29 12:50:44;;;;;;;4.40;2.10;;;;;;;22.76;42.26;102343.63;4903193;29;20060;-87
2022/08/29 12:53:18;;;;;;;6.10;2.78;;;;;;;22.78;42.06;102346.25;4903843;29;20052;-85
2022/08/29 12:55:48;;;;;;;6.53;2.50;;;;;;;22.82;42.47;102347.09;4902811;29;20087;-85
2022/08/29 12:58:31;;;;;;;4.80;2.35;;;;;;;22.83;42.41;102340.97;4902226;29;20530;-86
2022/08/29 13:00:57;;;;;;;5.10;2.30;;;;;;;22.84;42.66;102334.81;4901229;29;20052;-86
2022/08/29 13:03:23;;;;;;;7.00;2.60;;;;;;;22.84;42.52;102325.19;4888243;29;20143;-84
2022/08/29 13:05:49;;;;;;;5.80;2.70;;;;;;;22.84;42.87;102324.31;4902201;29;20048;-85
2022/08/29 13:11:09;;;;;;;4.88;2.47;;;;;;;22.91;42.65;102321.66;4917255;29;20063;-86
2022/08/29 13:13:35;;;;;;;3.70;2.10;;;;;;;22.93;42.87;102317.25;4916642;29;20525;-87
2022/08/29 13:16:04;;;;;;;3.97;2.40;;;;;;;22.95;42.57;102317.22;4868989;29;20083;-87
2022/08/29 13:18:31;;;;;;;6.05;2.30;;;;;;;22.96;42.69;102313.72;4916864;29;20055;-87
2022/08/29 13:24:11;;;;;;;3.80;2.22;;;;;;;22.93;42.53;102311.13;4916675;29;20067;-85
2022/08/29 13:29:32;;;;;;;4.65;2.03;;;;;;;22.98;42.84;102311.97;4916439;29;20311;-86
2022/08/29 13:32:22;;;;;;;3.38;2.08;;;;;;;23.00;42.67;102311.09;4914982;29;20056;-87
2022/08/29 13:48:32;;;;;;;31.30;8.68;;;;;;;23.08;45.48;102311.03;4892567;29;20045;-85
2022/08/29 13:50:58;;;;;;;41.45;12.18;;;;;;;23.06;45.22;102310.19;4881146;29;20104;-84
2022/08/29 13:53:24;;;;;;;45.70;11.20;;;;;;;23.09;45.00;102309.28;4899953;29;20041;-87
2022/08/29 13:55:49;;;;;;;35.92;10.10;;;;;;;23.14;44.40;102302.22;4881622;29;20040;-88
2022/08/29 13:58:20;;;;;;;36.30;10.10;;;;;;;23.08;44.70;102300.53;4899727;29;20060;-85
2022/08/29 14:00:46;;;;;;;26.42;8.88;;;;;;;23.02;44.11;102289.19;4905640;29;20052;-85
2022/08/29 14:03:15;;;;;;;29.40;9.15;;;;;;;22.97;44.00;102287.47;4895410;29;20064;-82
2022/08/29 14:05:42;;;;;;;26.00;8.15;;;;;;;22.97;43.88;102273.44;4894977;29;20060;-84
2022/08/29 14:08:09;;;;;;;20.42;7.40;;;;;;;22.98;43.83;102277.84;4894548;29;20052;-83
2022/08/29 14:10:34;;;;;;;22.75;6.95;;;;;;;23.02;43.44;102278.69;4897124;29;20068;-84
2022/08/29 14:13:00;;;;;;;20.90;6.35;;;;;;;23.02;43.13;102276.97;4878106;29;20056;-82
2022/08/29 14:15:26;;;;;;;17.70;6.28;;;;;;;22.99;42.83;102272.59;4895585;29;20135;-82
2022/08/29 14:17:51;;;;;;;13.68;5.50;;;;;;;22.97;42.86;102279.59;4877729;29;20408;-83
2022/08/29 14:20:18;;;;;;;18.55;6.20;;;;;;;22.96;42.69;102276.97;4879960;29;20113;-84
2022/08/29 14:22:44;;;;;;;10.88;5.30;;;;;;;22.93;42.80;102269.13;4894446;29;20052;-82
2022/08/29 14:25:11;;;;;;;13.38;5.55;;;;;;;22.92;42.66;102268.25;4895328;29;20052;-82
2022/08/29 14:27:37;;;;;;;14.88;5.32;;;;;;;22.94;42.67;102270.88;4895229;29;20060;-83
2022/08/29 14:30:06;;;;;;;9.15;4.82;;;;;;;22.94;42.36;102265.63;4893057;29;20056;-82
2022/08/29 14:32:31;;;;;;;10.35;4.63;;;;;;;22.95;42.77;102259.47;4879645;29;20110;-82
2022/08/29 14:34:57;;;;;;;10.43;4.22;;;;;;;22.95;42.65;102254.22;4892782;29;20068;-82
2022/08/29 14:37:22;;;;;;;10.27;4.28;;;;;;;22.96;42.84;102256.84;4894998;29;20507;-82
2022/08/29 14:39:48;;;;;;;10.20;4.30;;;;;;;22.97;42.41;102262.94;4878630;29;20060;-82
2022/08/29 14:42:14;;;;;;;9.10;4.03;;;;;;;22.95;42.37;102259.47;4908359;29;20056;-82
2022/08/29 14:47:04;;;;;;;8.90;4.15;;;;;;;22.96;42.09;102262.09;4881492;29;20404;-82
2022/08/29 14:49:30;;;;;;;11.85;3.92;;;;;;;22.94;42.51;102250.72;4860723;29;20052;-82
2022/08/29 14:51:55;;;;;;;7.80;3.72;;;;;;;22.97;42.31;102252.44;4889772;29;20493;-83
2022/08/29 14:54:23;;;;;;;7.70;4.00;;;;;;;22.97;42.47;102242.84;4888897;29;20057;-81
2022/08/29 14:56:48;;;;;;;10.52;3.88;;;;;;;22.98;42.40;102248.97;4877690;29;20045;-82
2022/08/29 14:59:14;;;;;;;9.90;3.90;;;;;;;23.00;42.69;102247.22;4879277;29;20052;-82
2022/08/29 15:04:05;;;;;;;6.13;3.42;;;;;;;23.03;42.69;102244.56;4894137;29;20510;-82
2022/08/29 15:06:30;;;;;;;6.35;3.17;;;;;;;23.04;42.05;102241.06;4894581;29;20052;-82
2022/08/29 15:08:57;;;;;;;7.68;3.30;;;;;;;23.03;42.23;102238.44;4878454;29;20055;-83
2022/08/29 15:11:23;;;;;;;6.20;3.20;;;;;;;23.03;42.89;102228.81;4896888;29;20419;-82
2022/08/29 15:13:48;;;;;;;8.65;3.42;;;;;;;23.04;42.40;102227.03;4893600;29;20045;-84
2022/08/29 15:16:13;;;;;;;6.85;3.13;;;;;;;23.04;42.24;102224.41;4879048;29;20076;-83
2022/08/29 15:18:39;;;;;;;5.47;3.33;;;;;;;23.04;42.45;102219.16;4895508;29;20056;-84
2022/08/29 15:21:04;;;;;;;8.30;3.25;;;;;;;23.04;42.54;102225.31;4866482;29;20061;-83
2022/08/29 15:23:32;;;;;;;6.70;3.35;;;;;;;23.02;42.49;102224.44;4901534;29;20045;-83
2022/08/29 15:25:58;;;;;;;7.22;3.13;;;;;;;22.98;42.50;102218.31;4891096;29;20064;-83
2022/08/29 15:28:24;;;;;;;5.18;2.88;;;;;;;22.98;42.75;102217.47;4877461;29;20057;-83
2022/08/29 15:30:49;;;;;;;7.43;3.30;;;;;;;23.00;42.88;102227.09;4889797;29;20052;-83
2022/08/29 15:33:15;;;;;;;4.53;2.80;;;;;;;22.98;42.51;102223.56;4878667;29;20045;-85
2022/08/29 15:35:41;;;;;;;6.97;3.00;;;;;;;23.00;42.39;102220.97;4877899;29;20487;-83
2022/08/29 15:38:07;;;;;;;7.57;2.75;;;;;;;23.02;42.26;102218.31;4877017;29;20055;-83
2022/08/29 15:40:34;;;;;;;6.55;2.90;;;;;;;23.03;42.52;102214.81;4893929;29;20048;-83
2022/08/29 15:42:59;;;;;;;7.00;2.40;;;;;;;23.04;42.52;102214.81;4893294;29;20144;-84
2022/08/29 15:45:26;;;;;;;5.22;2.90;;;;;;;23.07;42.49;102211.28;4898126;29;20139;-84
2022/08/29 15:47:56;;;;;;;6.80;3.25;;;;;;;23.04;42.53;102204.31;4847817;29;1414964;-83
2022/08/29 15:50:25;;;;;;;4.88;2.80;;;;;;;23.06;42.43;102199.91;4897933;29;20059;-84
2022/08/29 15:52:51;;;;;;;4.63;2.50;;;;;;;23.07;42.65;102212.13;4895750;29;20488;-83
2022/08/29 15:55:17;;;;;;;5.28;2.92;;;;;;;23.08;42.58;102203.38;4897403;29;20144;-83
2022/08/29 15:57:42;;;;;;;4.40;2.80;;;;;;;23.07;42.57;102208.66;4881078;29;20495;-84
2022/08/29 16:00:10;;;;;;;4.97;2.70;;;;;;;23.05;42.51;102202.53;4881416;29;20480;-85
2022/08/29 16:02:38;;;;;;;5.43;2.80;;;;;;;23.02;42.80;102207.81;4886783;29;20048;-83
2022/08/29 16:05:05;;;;;;;6.00;2.60;;;;;;;23.00;42.99;102207.84;4906762;29;20052;-82
2022/08/29 16:07:30;;;;;;;5.13;2.70;;;;;;;22.96;42.77;102201.72;4898328;29;20061;-83
2022/08/29 16:09:58;;;;;;;4.57;2.47;;;;;;;22.96;42.99;102193.84;4879757;29;20056;-81
2022/08/29 16:12:24;;;;;;;5.18;2.30;;;;;;;22.95;42.85;102194.75;4896859;29;20496;-82
2022/08/29 16:14:50;;;;;;;3.03;2.22;;;;;;;22.94;43.16;102195.59;4894888;29;20048;-84
2022/08/29 16:17:15;;;;;;;5.43;2.65;;;;;;;22.96;43.03;102192.97;4897218;29;20048;-83
2022/08/29 16:19:44;;;;;;;4.28;2.38;;;;;;;22.96;42.73;102185.97;4896993;29;20060;-83
2022/08/29 16:22:10;;;;;;;3.95;2.20;;;;;;;22.98;42.77;102180.69;4895899;29;20123;-84
2022/08/29 16:24:36;;;;;;;4.35;2.30;;;;;;;22.97;43.06;102179.84;4896841;29;20495;-83
2022/08/29 16:27:02;;;;;;;5.45;2.35;;;;;;;22.96;42.73;102182.47;4894462;29;20090;-84
2022/08/29 16:29:30;;;;;;;4.00;2.30;;;;;;;22.97;42.88;102181.56;4896883;29;20044;-83
2022/08/29 16:31:59;;;;;;;4.43;2.22;;;;;;;22.98;43.04;102183.31;4879133;29;20049;-82
2022/08/29 16:34:26;;;;;;;5.82;2.40;;;;;;;22.99;43.08;102190.31;4896953;29;20052;-80
2022/08/29 16:36:59;;;;;;;5.10;2.20;;;;;;;22.97;43.16;102189.44;4895517;29;20048;-84
2022/08/29 16:39:27;;;;;;;5.55;2.60;;;;;;;22.85;43.62;102198.34;4897543;29;20112;-82
2022/08/29 16:41:53;;;;;;;5.22;2.53;;;;;;;22.78;43.87;102202.78;4896630;29;20056;-81
2022/08/29 16:44:19;;;;;;;8.60;2.90;;;;;;;22.66;45.34;102205.50;4887357;29;20076;-82
2022/08/29 16:46:45;;;;;;;8.13;3.20;;;;;;;22.63;45.66;102216.03;4903128;29;20407;-83
2022/08/29 16:49:13;;;;;;;8.77;2.97;;;;;;;22.57;46.47;102202.97;4888549;29;20404;-82
2022/08/29 16:54:05;;;;;;;12.05;3.40;;;;;;;22.61;46.90;102217.81;4898494;29;20507;-80
2022/08/29 16:56:34;;;;;;;10.20;3.33;;;;;;;22.60;47.71;102216.06;4897467;29;20076;-84
2022/08/29 16:59:13;;;;;;;9.32;3.10;;;;;;;22.59;46.97;102203.84;4890212;29;20052;-83
2022/08/29 17:04:07;;;;;;;8.75;3.38;;;;;;;22.59;48.76;102209.06;4902126;29;20049;-84
2022/08/29 17:06:35;;;;;;;10.55;3.40;;;;;;;22.61;48.62;102198.56;4902572;29;20143;-84
2022/08/29 17:16:25;;;;;;;8.88;3.28;;;;;;;22.52;48.13;102200.41;4904368;29;20112;-83
2022/08/29 17:18:54;;;;;;;8.07;3.38;;;;;;;22.49;48.14;102203.03;4900985;29;20053;-86
2022/08/29 17:21:20;;;;;;;10.68;3.40;;;;;;;22.52;48.09;102199.53;4899943;29;20472;-84
2022/08/29 17:23:46;;;;;;;11.57;4.13;;;;;;;22.51;48.34;102197.78;4900685;29;20045;-83
2022/08/29 17:26:15;;;;;;;9.77;3.30;;;;;;;22.48;48.33;102190.81;4900163;29;20127;-87
2022/08/29 17:34:22;;;;;;;15.32;3.38;;;;;;;22.41;48.95;102201.34;4906326;29;20443;-87
2022/08/29 17:36:50;;;;;;;7.15;3.08;;;;;;;22.39;49.02;102207.50;4906111;29;20064;-86
2022/08/29 17:47:50;;;;;;;11.82;3.67;;;;;;;22.35;48.98;102204.91;5039709;23;20056;-85
2022/08/29 17:50:21;;;;;;;12.00;3.65;;;;;;;22.36;49.17;102214.50;4911885;29;20052;-86
2022/08/29 17:52:56;;;;;;;11.05;3.78;;;;;;;22.34;49.09;102209.28;4892649;29;20048;-85
2022/08/29 17:55:25;;;;;;;9.52;3.83;;;;;;;22.35;49.03;102208.41;4908638;29;20045;-84
2022/08/29 17:57:54;;;;;;;11.55;4.28;;;;;;;22.34;49.13;102209.28;4889504;29;20048;-85
2022/08/29 18:00:32;;;;;;;12.43;4.13;;;;;;;22.33;49.21;102204.06;4890132;29;20192;-87
2022/08/29 18:02:57;;;;;;;9.40;3.75;;;;;;;22.36;49.29;102209.25;4905429;29;20116;-86
2022/08/29 18:05:27;;;;;;;12.25;3.75;;;;;;;22.36;49.13;102210.16;4905766;29;20452;-88
2022/08/29 18:08:05;;;;;;;8.10;3.30;;;;;;;22.34;49.13;102204.03;4906210;29;20055;-84
2022/08/29 18:13:07;;;;;;;11.52;3.38;;;;;;;22.30;49.34;102201.47;4922454;29;21518;-86
2022/08/29 18:18:08;;;;;;;11.65;3.17;;;;;;;22.29;49.64;102218.94;4897332;29;20087;-84
2022/08/29 18:20:39;;;;;;;12.55;3.03;;;;;;;22.38;48.89;102210.13;4922613;29;20055;-85
2022/08/29 18:23:05;;;;;;;10.90;3.05;;;;;;;22.47;48.73;102219.66;4887439;29;20523;-84
2022/08/29 18:25:30;;;;;;;7.63;2.80;;;;;;;22.45;48.81;102222.31;4874659;29;20049;-84
2022/08/29 18:27:56;;;;;;;5.93;2.88;;;;;;;22.47;48.55;102223.19;4898274;29;20125;-82
2022/08/29 18:30:22;;;;;;;16.20;5.85;;;;;;;22.47;48.72;102225.81;4901806;29;20280;-85
2022/08/29 18:32:48;;;;;;;51.25;13.77;;;;;;;22.45;48.93;102226.69;4900911;29;20456;-84
2022/08/29 18:35:25;;;;;;;47.00;13.20;;;;;;;22.43;49.18;102225.81;4882766;29;20054;-83